createdAt,value
2018-05-15T01:41:20.664Z,96.70
2018-05-15T01:43:46.955Z,96.70
2018-05-15T01:46:13.500Z,96.80
2018-05-15T01:48:40.392Z,97.20
2018-05-15T01:51:06.356Z,97.40
2018-05-15T01:53:32.554Z,97.60
2018-05-15T01:56:00.064Z,97.70
2018-05-15T01:58:26.778Z,97.70
2018-05-15T02:00:55.059Z,97.90
2018-05-15T02:03:20.992Z,97.90
2018-05-15T02:05:48.262Z,97.90
2018-05-15T02:08:16.342Z,98.30
2018-05-15T02:10:42.290Z,98.30
2018-05-15T02:13:08.986Z,98.30
2018-05-15T02:15:34.977Z,98.30
2018-05-15T02:18:01.683Z,98.20
2018-05-15T02:20:28.299Z,98.20
2018-05-15T02:22:55.120Z,97.90
2018-05-15T02:25:22.378Z,97.80
2018-05-15T02:27:49.974Z,98.10
2018-05-15T02:30:16.091Z,97.80
2018-05-15T02:32:42.641Z,97.70
2018-05-15T02:35:09.056Z,97.90
2018-05-15T02:37:35.368Z,97.70
2018-05-15T02:40:01.565Z,97.60
2018-05-15T02:42:27.915Z,97.80
2018-05-15T02:44:54.461Z,97.70
2018-05-15T02:47:20.706Z,97.60
2018-05-15T02:49:46.680Z,97.50
2018-05-15T02:52:12.898Z,97.50
2018-05-15T02:54:40.389Z,97.70
2018-05-15T02:57:07.603Z,97.50
2018-05-15T02:59:34.597Z,97.20
2018-05-15T03:02:01.402Z,97.20
2018-05-15T03:04:28.117Z,96.90
2018-05-15T03:06:54.310Z,96.90
2018-05-15T03:09:21.095Z,97.00
2018-05-15T03:11:48.112Z,96.90
2018-05-15T03:14:15.696Z,96.60
2018-05-15T03:16:42.655Z,96.80
2018-05-15T03:19:09.576Z,96.80
2018-05-15T03:21:36.802Z,96.20
2018-05-15T03:24:03.217Z,96.30
2018-05-15T03:26:29.256Z,96.40
2018-05-15T03:28:55.218Z,95.90
2018-05-15T03:31:21.500Z,96.10
2018-05-15T03:33:47.750Z,96.10
2018-05-15T03:36:13.749Z,96.20
2018-05-15T03:38:40.714Z,95.50
2018-05-15T03:41:07.205Z,95.90
2018-05-15T03:43:33.366Z,95.80
2018-05-15T03:45:59.307Z,95.60
2018-05-15T03:48:26.678Z,95.70
2018-05-15T03:50:52.967Z,95.70
2018-05-15T03:53:18.994Z,95.90
2018-05-15T03:55:45.367Z,95.50
2018-05-15T03:58:11.706Z,95.80
2018-05-15T04:00:38.762Z,95.60
2018-05-15T04:03:06.084Z,95.60
2018-05-15T04:05:32.873Z,95.60
2018-05-15T04:07:59.894Z,95.70
2018-05-15T04:10:26.432Z,95.80
2018-05-15T04:12:53.166Z,95.60
2018-05-15T04:15:20.418Z,95.60
2018-05-15T04:17:47.947Z,95.50
2018-05-15T04:20:14.698Z,95.50
2018-05-15T04:22:40.642Z,95.60
2018-05-15T04:25:07.253Z,95.30
2018-05-15T04:27:34.110Z,95.20
2018-05-15T04:30:01.737Z,95.30
2018-05-15T04:32:27.684Z,95.30
2018-05-15T04:34:54.631Z,94.90
2018-05-15T04:37:21.838Z,95.00
2018-05-15T04:39:48.150Z,94.80
2018-05-15T04:42:14.185Z,94.80
2018-05-15T04:44:41.102Z,94.80
2018-05-15T04:47:07.837Z,94.50
2018-05-15T04:49:35.407Z,94.80
2018-05-15T04:52:01.438Z,94.80
2018-05-15T04:54:27.377Z,94.80
2018-05-15T04:56:54.995Z,94.90
2018-05-15T04:59:22.093Z,94.90
2018-05-15T05:01:49.017Z,95.00
2018-05-15T05:04:17.681Z,95.10
2018-05-15T05:06:43.910Z,95.10
2018-05-15T05:09:11.487Z,95.50
2018-05-15T05:11:38.129Z,95.50
2018-05-15T05:14:04.452Z,95.90
2018-05-15T05:16:31.167Z,96.00
2018-05-15T05:18:57.550Z,96.10
2018-05-15T05:21:23.524Z,96.40
2018-05-15T05:23:49.786Z,96.30
2018-05-15T05:26:16.068Z,96.30
2018-05-15T05:28:42.034Z,96.50
2018-05-15T05:31:09.894Z,96.60
2018-05-15T05:33:36.170Z,96.60
2018-05-15T05:36:02.415Z,96.20
2018-05-15T05:38:28.683Z,96.70
2018-05-15T05:40:55.587Z,96.30
2018-05-15T05:43:21.593Z,96.30
2018-05-15T05:45:48.090Z,96.60
2018-05-15T05:48:14.349Z,96.90
2018-05-15T05:50:40.311Z,96.70
2018-05-15T05:53:07.309Z,96.40
2018-05-15T05:55:33.306Z,96.40
2018-05-15T05:57:59.275Z,96.70
2018-05-15T06:00:25.289Z,96.70
2018-05-15T06:02:51.498Z,97.60
2018-05-15T06:05:17.439Z,97.40
2018-05-15T06:07:43.376Z,96.80
2018-05-15T06:10:09.331Z,97.00
2018-05-15T06:12:35.989Z,96.60
2018-05-15T06:15:02.695Z,96.80
2018-05-15T06:17:28.631Z,96.80
2018-05-15T06:19:55.322Z,95.50
2018-05-15T06:22:21.309Z,95.50
2018-05-15T06:24:48.010Z,95.30
2018-05-15T06:27:13.944Z,95.30
2018-05-15T06:29:39.883Z,94.20
2018-05-15T06:32:06.570Z,95.30
2018-05-15T06:34:32.479Z,95.30
2018-05-15T06:36:58.443Z,95.50
2018-05-15T06:39:24.364Z,95.50
2018-05-15T06:41:50.309Z,95.40
2018-05-15T06:44:16.967Z,94.90
2018-05-15T06:46:42.936Z,95.20
2018-05-15T06:49:08.866Z,94.60
2018-05-15T06:54:06.554Z,94.20
2018-05-15T06:56:33.245Z,94.00
2018-05-15T06:58:59.181Z,94.00
2018-05-15T07:01:25.118Z,94.20
2018-05-15T07:03:51.059Z,94.00
2018-05-15T07:06:17.734Z,94.40
2018-05-15T07:08:43.692Z,94.40
2018-05-15T07:11:09.628Z,94.20
2018-05-15T07:13:35.602Z,94.70
2018-05-15T07:16:01.525Z,94.80
2018-05-15T07:18:27.467Z,94.80
2018-05-15T07:20:53.393Z,94.70
2018-05-15T07:23:19.298Z,94.50
2018-05-15T07:25:45.245Z,94.40
2018-05-15T07:28:11.179Z,94.60
2018-05-15T07:30:37.117Z,94.40
2018-05-15T07:33:03.020Z,94.20
2018-05-15T07:35:28.934Z,94.30
2018-05-15T07:37:54.877Z,94.60
2018-05-15T07:40:20.895Z,94.30
2018-05-15T07:42:47.501Z,94.20
2018-05-15T07:45:13.447Z,94.20
2018-05-15T07:47:39.802Z,94.40
2018-05-15T07:50:06.495Z,94.10
2018-05-15T07:52:32.461Z,94.10
2018-05-15T07:54:59.472Z,95.00
2018-05-15T07:57:25.402Z,94.80
2018-05-15T07:59:51.387Z,94.80
2018-05-15T08:02:17.319Z,94.10
2018-05-15T08:04:43.269Z,94.10
2018-05-15T08:07:09.250Z,94.60
2018-05-15T08:09:35.169Z,94.10
2018-05-15T08:12:01.086Z,92.90
2018-05-15T08:14:27.035Z,91.30
2018-05-15T08:16:52.978Z,92.90
2018-05-15T08:19:18.884Z,93.10
2018-05-15T08:21:44.822Z,93.30
2018-05-15T08:24:10.769Z,92.40
2018-05-15T08:26:37.448Z,91.00
2018-05-15T08:29:03.371Z,91.00
2018-05-15T08:31:29.319Z,90.90
2018-05-15T08:33:55.255Z,93.20
2018-05-15T08:36:21.202Z,94.10
2018-05-15T08:38:47.883Z,92.80
2018-05-15T08:41:13.806Z,92.80
2018-05-15T08:43:39.747Z,91.70
2018-05-15T08:46:05.669Z,92.10
2018-05-15T08:48:31.571Z,90.10
2018-05-15T08:50:57.515Z,90.90
2018-05-15T08:53:23.439Z,92.10
2018-05-15T08:55:49.424Z,91.10
2018-05-15T08:58:15.371Z,91.60
2018-05-15T09:00:41.287Z,91.10
2018-05-15T09:03:07.208Z,88.20
2018-05-15T09:05:33.110Z,90.40
2018-05-15T09:07:59.033Z,90.00
2018-05-15T09:10:24.943Z,90.40
2018-05-15T09:12:50.851Z,89.70
2018-05-15T09:15:16.759Z,90.00
2018-05-15T09:17:43.437Z,88.10
2018-05-15T09:20:09.334Z,88.10
2018-05-15T09:22:35.248Z,84.60
2018-05-15T09:25:01.163Z,85.80
2018-05-15T09:27:27.112Z,82.30
2018-05-15T09:29:53.059Z,83.10
2018-05-15T09:32:18.958Z,82.90
2018-05-15T09:34:44.892Z,81.20
2018-05-15T09:37:10.832Z,81.60
2018-05-15T09:39:37.590Z,83.40
2018-05-15T09:42:03.926Z,83.40
2018-05-15T09:44:29.887Z,84.30
2018-05-15T09:46:55.851Z,79.30
2018-05-15T09:49:21.821Z,83.30
2018-05-15T09:51:47.823Z,80.60
2018-05-15T09:54:13.800Z,82.30
2018-05-15T09:56:39.725Z,79.60
2018-05-15T09:59:05.673Z,73.70
2018-05-15T10:01:32.037Z,73.70
2018-05-15T10:03:58.774Z,73.30
2018-05-15T10:06:24.780Z,75.60
2018-05-15T10:08:51.438Z,72.90
2018-05-15T10:11:17.336Z,72.80
2018-05-15T10:13:44.036Z,69.70
2018-05-15T10:16:09.978Z,69.70
2018-05-15T10:18:35.880Z,70.90
2018-05-15T10:21:01.815Z,73.80
2018-05-15T10:23:27.763Z,68.40
2018-05-15T10:25:54.432Z,75.70
2018-05-15T10:28:20.357Z,75.80
2018-05-15T10:30:46.292Z,70.50
2018-05-15T10:33:12.243Z,74.70
2018-05-15T10:35:38.159Z,71.60
2018-05-15T10:38:04.087Z,71.50
2018-05-15T10:40:30.027Z,68.50
2018-05-15T10:42:55.962Z,68.10
2018-05-15T10:45:21.900Z,68.30
2018-05-15T10:47:47.827Z,68.50
2018-05-15T10:50:13.792Z,69.10
2018-05-15T10:52:39.694Z,64.30
2018-05-15T10:55:05.617Z,64.10
2018-05-15T10:57:31.517Z,64.80
2018-05-15T10:59:57.451Z,66.80
2018-05-15T11:02:23.357Z,69.30
2018-05-15T11:04:49.554Z,68.60
2018-05-15T11:07:15.189Z,64.90
2018-05-15T11:09:41.128Z,64.00
2018-05-15T11:12:07.070Z,66.20
2018-05-15T11:14:33.019Z,65.10
2018-05-15T11:16:58.918Z,65.20
2018-05-15T11:19:24.824Z,67.90
2018-05-15T11:21:50.769Z,65.00
2018-05-15T11:24:16.679Z,66.90
2018-05-15T11:26:42.602Z,67.00
2018-05-15T11:29:08.518Z,67.90
2018-05-15T11:31:34.457Z,66.90
2018-05-15T11:34:00.354Z,67.20
2018-05-15T11:36:26.308Z,65.40
2018-05-15T11:38:53.091Z,68.70
2018-05-15T11:41:20.103Z,77.60
2018-05-15T11:43:48.355Z,82.80
2018-05-15T11:46:15.285Z,84.10
2018-05-15T11:48:43.127Z,85.00
2018-05-15T11:51:11.066Z,83.00
2018-05-15T11:53:38.911Z,83.00
2018-05-15T11:56:06.150Z,85.60
2018-05-15T11:58:35.419Z,94.60
2018-05-15T12:01:02.834Z,94.60
2018-05-15T12:03:31.382Z,93.80
2018-05-15T12:06:00.431Z,93.30
2018-05-15T12:08:29.001Z,93.30
2018-05-15T12:10:56.003Z,92.50
2018-05-15T12:13:24.378Z,91.40
2018-05-15T12:15:51.331Z,91.40
2018-05-15T12:18:19.126Z,92.40
2018-05-15T12:20:46.675Z,88.70
2018-05-15T12:23:14.350Z,84.70
2018-05-15T12:25:42.823Z,84.70
2018-05-15T12:28:10.445Z,84.00
2018-05-15T12:30:37.736Z,83.90
2018-05-15T12:33:05.558Z,85.30
2018-05-15T12:35:31.590Z,82.60
2018-05-15T12:37:58.963Z,77.70
2018-05-15T12:40:25.858Z,77.70
2018-05-15T12:42:52.676Z,75.80
2018-05-15T12:45:18.746Z,78.10
2018-05-15T12:47:45.115Z,77.30
2018-05-15T12:50:12.413Z,78.40
2018-05-15T12:52:38.699Z,71.30
2018-05-15T12:55:05.120Z,75.60
2018-05-15T12:57:31.076Z,77.00
2018-05-15T12:59:57.750Z,73.90
2018-05-15T13:02:24.003Z,66.70
2018-05-15T13:04:50.763Z,68.40
2018-05-15T13:07:17.737Z,72.00
2018-05-15T13:09:43.692Z,72.10
2018-05-15T13:12:09.685Z,66.70
2018-05-15T13:14:35.661Z,62.50
2018-05-15T13:17:01.649Z,65.70
2018-05-15T13:19:27.574Z,66.30
2018-05-15T13:21:53.539Z,63.80
2018-05-15T13:24:19.545Z,64.40
2018-05-15T13:26:46.171Z,58.10
2018-05-15T13:29:12.092Z,58.10
2018-05-15T13:31:38.022Z,58.10
2018-05-15T13:34:03.947Z,59.60
2018-05-15T13:36:29.873Z,55.50
2018-05-15T13:38:55.887Z,57.90
2018-05-15T13:41:21.800Z,57.70
2018-05-15T13:43:47.747Z,55.40
2018-05-15T13:46:13.653Z,53.30
2018-05-15T13:48:39.579Z,56.70
2018-05-15T13:51:05.479Z,54.20
2018-05-15T13:53:31.410Z,49.90
2018-05-15T13:55:57.311Z,51.70
2018-05-15T13:58:23.237Z,52.40
2018-05-15T14:00:49.170Z,50.00
2018-05-15T14:03:15.119Z,48.90
2018-05-15T14:05:41.061Z,50.90
2018-05-15T14:08:06.992Z,51.10
2018-05-15T14:10:32.969Z,52.10
2018-05-15T14:12:58.888Z,51.50
2018-05-15T14:15:24.834Z,51.50
2018-05-15T14:17:51.475Z,46.00
2018-05-15T14:20:18.145Z,46.30
2018-05-15T14:22:44.074Z,46.20
2018-05-15T14:25:10.048Z,49.70
2018-05-15T14:27:35.999Z,47.20
2018-05-15T14:30:01.953Z,45.10
2018-05-15T14:32:27.869Z,44.00
2018-05-15T14:34:53.786Z,50.00
2018-05-15T14:37:19.754Z,46.20
2018-05-15T14:39:45.734Z,47.20
2018-05-15T14:42:11.695Z,46.10
2018-05-15T14:44:37.670Z,48.30
2018-05-15T14:47:03.703Z,44.30
2018-05-15T14:49:29.827Z,46.20
2018-05-15T14:51:56.046Z,45.10
2018-05-15T14:54:22.460Z,48.10
2018-05-15T14:56:48.446Z,49.70
2018-05-15T14:59:15.448Z,45.60
2018-05-15T15:01:41.455Z,45.50
2018-05-15T15:04:07.448Z,47.80
2018-05-15T15:06:33.677Z,48.70
2018-05-15T15:09:00.636Z,46.70
2018-05-15T15:11:27.353Z,46.20
2018-05-15T15:13:54.363Z,48.30
2018-05-15T15:16:20.344Z,48.30
2018-05-15T15:18:46.254Z,45.50
2018-05-15T15:21:13.216Z,47.10
2018-05-15T15:23:39.181Z,42.00
2018-05-15T15:26:05.077Z,45.60
2018-05-15T15:28:30.982Z,46.10
2018-05-15T15:30:57.663Z,46.40
2018-05-15T15:33:23.631Z,46.50
2018-05-15T15:35:50.283Z,47.40
2018-05-15T15:38:16.215Z,47.40
2018-05-15T15:40:42.128Z,47.10
2018-05-15T15:43:08.102Z,46.20
2018-05-15T15:45:33.978Z,44.30
2018-05-15T15:47:59.898Z,43.00
2018-05-15T15:50:25.878Z,45.90
2018-05-15T15:52:51.762Z,45.40
2018-05-15T15:55:17.676Z,46.10
2018-05-15T15:57:43.623Z,47.30
2018-05-15T16:00:09.583Z,47.00
2018-05-15T16:02:37.741Z,50.30
2018-05-15T16:05:05.528Z,50.30
2018-05-15T16:10:06.116Z,51.20
2018-05-15T16:12:33.202Z,52.80
2018-05-15T16:15:00.026Z,52.20
2018-05-15T16:17:27.620Z,52.40
2018-05-15T16:19:53.835Z,54.00
2018-05-15T16:22:20.019Z,51.60
2018-05-15T16:24:46.858Z,53.50
2018-05-15T16:27:13.767Z,52.30
2018-05-15T16:29:41.498Z,52.20
2018-05-15T16:32:10.244Z,52.00
2018-05-15T16:34:37.383Z,52.00
2018-05-15T16:37:04.554Z,51.20
2018-05-15T16:39:32.695Z,51.30
2018-05-15T16:42:00.231Z,50.90
2018-05-15T16:44:28.271Z,52.60
2018-05-15T16:46:55.362Z,53.00
2018-05-15T16:49:21.828Z,52.70
2018-05-15T16:51:48.728Z,53.50
2018-05-15T16:54:18.379Z,53.80
2018-05-15T16:56:48.330Z,53.80
2018-05-15T16:59:17.291Z,52.80
2018-05-15T17:01:45.567Z,51.70
2018-05-15T17:04:12.964Z,50.90
2018-05-15T17:06:40.371Z,51.90
2018-05-15T17:09:08.180Z,52.20
2018-05-15T17:11:38.791Z,53.20
2018-05-15T17:14:06.180Z,52.80
2018-05-15T17:16:33.431Z,53.40
2018-05-15T17:19:00.586Z,52.20
2018-05-15T17:21:27.667Z,52.30
2018-05-15T17:23:54.770Z,51.60
2018-05-15T17:26:23.163Z,52.40
2018-05-15T17:28:51.118Z,53.20
2018-05-15T17:31:18.045Z,54.40
2018-05-15T17:33:44.905Z,53.20
2018-05-15T17:36:10.886Z,54.50
2018-05-15T17:38:37.760Z,53.40
2018-05-15T17:41:03.778Z,55.50
2018-05-15T17:43:30.526Z,55.80
2018-05-15T17:45:57.468Z,56.90
2018-05-15T17:48:26.513Z,55.80
2018-05-15T17:50:54.041Z,57.00
2018-05-15T17:53:20.084Z,57.00
2018-05-15T17:55:48.845Z,57.90
2018-05-15T17:58:14.853Z,57.90
2018-05-15T18:00:41.899Z,57.40
2018-05-15T18:03:07.931Z,56.90
2018-05-15T18:05:34.232Z,57.60
2018-05-15T18:08:01.145Z,57.30
2018-05-15T18:10:28.177Z,56.00
2018-05-15T18:12:54.214Z,56.60
2018-05-15T18:15:21.049Z,56.50
2018-05-15T18:17:47.935Z,56.80
2018-05-15T18:20:14.396Z,58.00
2018-05-15T18:22:42.061Z,57.50
2018-05-15T18:25:08.901Z,57.30
2018-05-15T18:27:36.541Z,57.60
2018-05-15T18:30:02.738Z,57.30
2018-05-15T18:32:30.562Z,57.20
2018-05-15T18:34:57.317Z,57.50
2018-05-15T18:37:24.232Z,57.20
2018-05-15T18:39:52.037Z,57.20
2018-05-15T18:42:18.019Z,57.40
2018-05-15T18:44:44.759Z,57.10
2018-05-15T18:47:11.104Z,57.10
2018-05-15T18:49:38.944Z,56.60
2018-05-15T18:52:06.734Z,57.80
2018-05-15T18:54:34.332Z,58.00
2018-05-15T18:57:01.737Z,56.50
2018-05-15T18:59:29.536Z,56.80
2018-05-15T19:01:56.476Z,55.80
2018-05-15T19:04:24.162Z,56.60
2018-05-15T19:06:51.160Z,56.70
2018-05-15T19:09:17.875Z,56.70
2018-05-15T19:11:45.622Z,57.20
2018-05-15T19:14:11.859Z,57.40
2018-05-15T19:16:39.404Z,58.70
2018-05-15T19:19:06.233Z,58.70
2018-05-15T19:21:32.675Z,58.10
2018-05-15T19:23:59.099Z,58.20
2018-05-15T19:26:25.382Z,58.70
2018-05-15T19:28:52.228Z,59.20
2018-05-15T19:31:18.987Z,59.30
2018-05-15T19:33:45.797Z,60.80
2018-05-15T19:36:11.823Z,60.70
2018-05-15T19:38:38.200Z,61.60
2018-05-15T19:41:04.981Z,62.70
2018-05-15T19:43:30.979Z,63.00
2018-05-15T19:45:57.544Z,63.60
2018-05-15T19:48:24.653Z,63.40
2018-05-15T19:50:51.779Z,64.20
2018-05-15T19:53:17.968Z,64.10
2018-05-15T19:55:45.023Z,65.30
2018-05-15T19:58:12.858Z,65.80
2018-05-15T20:00:39.623Z,66.50
2018-05-15T20:03:05.679Z,66.90
2018-05-15T20:05:31.800Z,66.70
2018-05-15T20:07:57.738Z,66.30
2018-05-15T20:10:25.089Z,66.80
2018-05-15T20:12:51.226Z,66.80
2018-05-15T20:15:18.261Z,65.70
2018-05-15T20:17:45.133Z,65.60
2018-05-15T20:20:12.630Z,65.50
2018-05-15T20:22:38.600Z,65.40
2018-05-15T20:25:05.070Z,65.40
2018-05-15T20:27:32.102Z,65.50
2018-05-15T20:29:58.136Z,65.70
2018-05-15T20:32:24.899Z,65.90
2018-05-15T20:34:51.330Z,66.60
2018-05-15T20:37:18.128Z,66.30
2018-05-15T20:39:44.875Z,66.30
2018-05-15T20:42:10.929Z,66.10
2018-05-15T20:44:38.356Z,67.20
2018-05-15T20:47:05.366Z,67.20
2018-05-15T20:49:32.948Z,67.30
2018-05-15T20:52:00.670Z,68.20
2018-05-15T20:54:26.705Z,68.20
2018-05-15T20:56:52.781Z,68.50
2018-05-15T20:59:18.949Z,68.80
2018-05-15T21:01:45.715Z,69.90
2018-05-15T21:04:13.267Z,69.80
2018-05-15T21:06:40.554Z,70.80
2018-05-15T21:09:06.548Z,70.00
2018-05-15T21:11:33.592Z,70.30
2018-05-15T21:14:00.382Z,70.20
2018-05-15T21:16:27.212Z,71.10
2018-05-15T21:18:53.790Z,71.50
2018-05-15T21:21:20.248Z,73.10
2018-05-15T21:23:46.822Z,72.70
2018-05-15T21:26:12.758Z,73.00
2018-05-15T21:28:39.573Z,73.60
2018-05-15T21:31:05.921Z,74.00
2018-05-15T21:33:31.938Z,74.90
2018-05-15T21:35:59.163Z,75.40
2018-05-15T21:38:26.059Z,76.50
2018-05-15T21:40:52.648Z,76.50
2018-05-15T21:43:19.694Z,77.70
2018-05-15T21:45:46.861Z,78.40
2018-05-15T21:48:13.137Z,78.30
2018-05-15T21:50:39.106Z,77.60
2018-05-15T21:53:06.816Z,77.80
2018-05-15T21:55:33.369Z,77.80
2018-05-15T21:57:59.991Z,78.20
2018-05-15T22:00:26.779Z,77.20
2018-05-15T22:02:53.762Z,77.20
2018-05-15T22:05:19.731Z,77.20
2018-05-15T22:07:46.059Z,77.80
2018-05-15T22:10:12.075Z,77.60
2018-05-15T22:12:39.306Z,76.50
2018-05-15T22:15:06.031Z,76.30
2018-05-15T22:17:32.294Z,77.50
2018-05-15T22:19:59.534Z,77.80
2018-05-15T22:22:26.048Z,77.80
2018-05-15T22:24:53.318Z,78.10
2018-05-15T22:27:22.063Z,78.00
2018-05-15T22:29:48.155Z,78.50
2018-05-15T22:32:14.632Z,78.10
2018-05-15T22:34:42.260Z,77.80
2018-05-15T22:37:09.539Z,77.60
2018-05-15T22:39:35.486Z,77.60
2018-05-15T22:42:02.282Z,78.70
2018-05-15T22:44:30.772Z,78.00
2018-05-15T22:46:57.515Z,77.60
2018-05-15T22:49:23.576Z,77.40
2018-05-15T22:51:50.614Z,77.00
2018-05-15T22:54:16.641Z,76.10
2018-05-15T22:56:43.633Z,76.40
2018-05-15T22:59:10.417Z,77.60
2018-05-15T23:01:36.659Z,77.40
2018-05-15T23:04:04.880Z,77.20
2018-05-15T23:06:31.815Z,77.70
2018-05-15T23:08:57.723Z,77.70
2018-05-15T23:11:24.609Z,78.20
2018-05-15T23:13:52.390Z,78.10
2018-05-15T23:16:20.007Z,78.20
2018-05-15T23:18:46.991Z,78.80
2018-05-15T23:21:14.246Z,78.80
2018-05-15T23:23:40.284Z,79.40
2018-05-15T23:26:06.954Z,79.90
2018-05-15T23:28:32.887Z,79.70
2018-05-15T23:30:58.799Z,79.80
2018-05-15T23:33:25.879Z,79.90
2018-05-15T23:35:53.478Z,79.40
2018-05-15T23:38:19.773Z,79.40
2018-05-15T23:40:46.137Z,79.90
2018-05-15T23:43:12.113Z,79.70
2018-05-15T23:45:39.701Z,79.10
2018-05-15T23:48:05.867Z,79.10
2018-05-15T23:50:32.582Z,79.10
2018-05-15T23:52:58.510Z,79.20
2018-05-15T23:55:25.365Z,79.20
2018-05-15T23:57:51.590Z,78.90
